• Join FlightAware (Why Join?)
  • Login
  • US Flag 
03:20PM EDT


 

Airport Tracker/Info


-or-


 

Live Flight TrackerFlight Track Log ✈ LXJ262 ✈ 13-Jun-2013 ✈ KDTS - KMSY

Flight Track Log - Related Links

Times and Time Zones

All times are in EDT time to prevent confusion due to time zone crossing. See the LXJ262 flight status page for this flight to view local times or setup timezone preferences in your user account.

Time Position Orientation Groundspeed Altitude Reporting Facility
EDT Latitude Longitude Course Direction KTS MPH feet Rate Location/Type
05:05PM 30.4233 -86.3831 270° West 255 293 6,000  Level Jacksonville Center
05:06PM 30.4964 -86.3833 360° North 283 326 9,600 3,000 Climbing Jacksonville Center
05:07PM 30.5800 -86.3814 North 290 334 12,100 3,240 Climbing Jacksonville Center
05:09PM 30.8167 -86.7878 270° West  Level FlightAware Approximate
05:09PM 30.7592 -86.3881 358° North 313 360 19,400  Level Jacksonville Center
05:10PM 30.8094 -86.8973 264° West  Level FlightAware Approximate
05:10PM 30.8219 -86.4631 314° West 304 350 21,400  Level Jacksonville Center
05:11PM 30.8000 -87.0067 270° West  Level FlightAware Approximate
05:11PM 30.8244 -86.5961 271° West 313 360 22,500  Level Jacksonville Center
05:12PM 30.8242 -86.7411 270° West 380 437 24,000 720 Climbing Jacksonville Center
05:13PM 30.8031 -86.8856 260° West 426 490 24,000  Level Jacksonville Center
05:14PM 30.7756 -87.0317 258° West 453 521 24,000  Level Jacksonville Center
05:15PM 30.7497 -87.1781 258° West 469 540 24,000  Level Jacksonville Center
05:16PM 30.7239 -87.3242 258° West 469 540 24,000  Level Jacksonville Center
05:18PM 30.6881 -87.5328 259° West 472 543 24,000  Level Houston Center
05:19PM 30.6558 -87.7111 258° West 469 540 24,000  Level Houston Center
05:20PM 30.6300 -87.8594 259° West 468 539 24,000  Level Houston Center
05:21PM 30.6028 -88.0086 258° West 469 540 24,000  Level Houston Center
05:22PM 30.5683 -88.1556 255° West 467 537 24,000  Level Houston Center
05:23PM 30.5308 -88.3014 253° West 469 540 24,000  Level Houston Center
05:24PM 30.4950 -88.4481 254° West 469 540 24,000  Level Houston Center
05:25PM 30.4561 -88.5944 253° West 472 543 24,000  Level Houston Center
05:26PM 30.4125 -88.7692 254° West 470 541 24,000 -540 Level Houston Center
05:27PM 30.3750 -88.9117 253° West 465 535 22,900 -1,380 Descending Houston Center
05:28PM 30.3444 -89.0361 254° West 458 527 21,200 -1,920 Descending Houston Center
05:29PM 30.3011 -89.2022 253° West 450 518 19,000 -2,040 Descending Houston Center
05:30PM 30.2653 -89.3411 253° West 451 519 17,100 -1,860 Descending Houston Center
05:30PM 30.2522 -89.3931 254° West 442 509 16,500 -1,620 Descending Houston Center
05:31PM 30.2303 -89.4733 252° West 436 502 15,400 -1,680 Descending Houston Center
05:31PM 30.2194 -89.5247 256° West 424 488 14,800 -1,680 Descending Houston Center
05:32PM 30.1964 -89.6028 251° West 422 486 13,700 -1,740 Descending Houston Center
05:32PM 30.1819 -89.6492 250° West 411 473 13,100 -1,680 Descending Houston Center
05:33PM 30.1494 -89.7150 240° Southwest 386 444 12,000 -1,740 Descending Houston Center
05:34PM 30.1233 -89.7625 238° Southwest 335 386 11,200 -1,560 Descending Houston Center
05:34PM 30.1008 -89.8061 239° Southwest 339 390 10,400 -1,740 Descending Houston Center
05:35PM 30.0781 -89.8508 240° Southwest 294 338 9,300 -2,040 Descending Houston Center
05:35PM 30.0611 -89.8875 242° Southwest 301 346 8,300 -2,280 Descending Houston Center
05:36PM 30.0392 -89.9319 240° Southwest 285 328 7,000 -2,460 Descending Houston Center
05:36PM 30.0136 -89.9833 240° Southwest 289 333 5,800 -1,980 Descending Houston Center
05:37PM 29.9958 -90.0156 238° Southwest 278 320 5,000 -1,800 Descending Houston Center
05:37PM 29.9767 -90.0586 243° Southwest 280 322 4,000 -1,620 Descending Houston Center
05:38PM 29.9606 -90.0867 236° Southwest 255 293 3,400 -1,020 Descending Houston Center
05:38PM 29.9422 -90.1272 242° Southwest 264 304 3,000 -420 Descending Houston Center
05:39PM 29.9289 -90.1503 236° Southwest 219 252 3,000 -120 Level Houston Center
05:39PM 29.9133 -90.1853 243° Southwest 231 266 2,900 -120 Descending Houston Center
05:40PM 29.8994 -90.2089 236° Southwest 203 234 2,900 -720 Level Houston Center
05:40PM 29.8878 -90.2417 248° West 212 244 2,200 -1,140 Descending Houston Center
05:41PM 29.9033 -90.2639 309° West 194 223 1,800 -1,020 Descending Houston Center
05:41PM 29.9264 -90.2731 341° North 188 216 1,200 -900 Descending Houston Center
05:42PM 29.9472 -90.2647 19° North 153 176 800 -900 Descending Houston Center
05:42PM 29.9689 -90.2589 13° North 169 194 300 -840 Descending Houston Center
05:44PM 29.9833 -90.2500 337° Northwest  Level FlightAware Approximate